createdAt,value
2022-10-11T00:03:14.092Z,62.70
2022-10-11T00:08:39.381Z,62.58
2022-10-11T00:13:31.790Z,63.01
2022-10-11T00:18:31.729Z,63.22
2022-10-11T00:23:31.636Z,63.32
2022-10-11T00:28:31.624Z,63.43
2022-10-11T00:33:31.481Z,63.47
2022-10-11T00:38:32.113Z,63.50
2022-10-11T00:43:31.384Z,63.53
2022-10-11T00:48:31.302Z,63.57
2022-10-11T00:53:31.235Z,63.62
2022-10-11T00:58:31.182Z,63.65
2022-10-11T01:03:31.086Z,63.72
2022-10-11T01:08:31.056Z,63.80
2022-10-11T01:13:31.023Z,63.88
2022-10-11T01:18:30.903Z,63.96
2022-10-11T01:23:30.837Z,64.01
2022-10-11T01:28:30.803Z,64.08
2022-10-11T01:33:30.713Z,64.16
2022-10-11T01:38:30.771Z,64.23
2022-10-11T01:43:30.558Z,64.29
2022-10-11T01:48:30.513Z,64.33
2022-10-11T01:53:30.431Z,64.36
2022-10-11T01:58:30.405Z,64.42
2022-10-11T02:03:30.284Z,64.47
2022-10-11T02:08:30.250Z,64.51
2022-10-11T02:13:30.172Z,64.51
2022-10-11T02:18:30.083Z,64.54
2022-10-11T02:23:30.042Z,64.58
2022-10-11T02:28:30.040Z,64.60
2022-10-11T02:33:29.874Z,64.64
2022-10-11T02:38:29.845Z,64.69
2022-10-11T02:43:29.772Z,64.76
2022-10-11T02:48:29.700Z,64.84
2022-10-11T02:53:29.614Z,64.87
2022-10-11T02:58:29.593Z,64.89
2022-10-11T03:03:29.479Z,64.92
2022-10-11T03:08:29.436Z,64.98
2022-10-11T03:13:29.355Z,64.99
2022-10-11T03:18:29.296Z,65.04
2022-10-11T03:23:29.220Z,65.06
2022-10-11T03:28:29.198Z,65.09
2022-10-11T03:33:29.118Z,65.16
2022-10-11T03:38:29.030Z,65.25
2022-10-11T03:43:28.954Z,65.34
2022-10-11T03:48:28.891Z,65.40
2022-10-11T03:53:28.821Z,65.39
2022-10-11T03:58:28.783Z,65.41
2022-10-11T04:03:28.689Z,65.46
2022-10-11T04:08:28.602Z,65.48
2022-10-11T04:13:28.571Z,65.53
2022-10-11T04:18:38.109Z,65.26
2022-10-11T04:23:30.479Z,65.58
2022-10-11T04:28:30.542Z,65.75
2022-10-11T04:33:30.474Z,65.85
2022-10-11T04:38:30.274Z,65.91
2022-10-11T04:43:30.293Z,65.92
2022-10-11T04:48:30.142Z,65.94
2022-10-11T04:53:30.094Z,65.93
2022-10-11T04:58:30.026Z,65.94
2022-10-11T05:03:29.956Z,65.98
2022-10-11T05:08:29.938Z,65.99
2022-10-11T05:13:29.824Z,66.02
2022-10-11T05:18:29.735Z,66.08
2022-10-11T05:23:29.735Z,66.08
2022-10-11T05:28:29.710Z,66.08
2022-10-11T05:33:29.544Z,66.08
2022-10-11T05:38:29.483Z,66.10
2022-10-11T05:43:29.418Z,66.10
2022-10-11T05:48:29.381Z,66.09
2022-10-11T05:53:29.277Z,66.11
2022-10-11T05:58:29.246Z,66.06
2022-10-11T06:03:29.165Z,65.96
2022-10-11T06:08:29.062Z,65.87
2022-10-11T06:13:29.022Z,65.80
2022-10-11T06:18:28.971Z,65.72
2022-10-11T06:23:28.885Z,65.55
2022-10-11T06:28:28.876Z,65.39
2022-10-11T06:33:28.764Z,65.25
2022-10-11T06:38:28.667Z,64.99
2022-10-11T06:43:28.646Z,64.83
2022-10-11T06:48:28.550Z,64.51
2022-10-11T06:53:28.485Z,64.37
2022-10-11T06:58:28.457Z,64.44
2022-10-11T07:03:28.330Z,64.20
2022-10-11T07:08:28.269Z,63.67
2022-10-11T07:13:28.209Z,62.99
2022-10-11T07:18:28.125Z,60.87
2022-10-11T07:23:28.091Z,60.38
2022-10-11T07:28:28.071Z,61.24
2022-10-11T07:33:27.927Z,60.82
2022-10-11T07:38:27.903Z,56.02
2022-10-11T07:43:27.813Z,55.31
2022-10-11T07:48:27.723Z,58.53
2022-10-11T07:53:27.693Z,58.75
2022-10-11T07:58:27.623Z,58.70
2022-10-11T08:03:27.561Z,58.05
2022-10-11T08:08:27.472Z,59.07
2022-10-11T08:13:27.436Z,57.98
2022-10-11T08:18:27.345Z,57.68
2022-10-11T08:23:27.242Z,54.32
2022-10-11T08:28:27.245Z,47.65
2022-10-11T08:33:27.134Z,49.13
2022-10-11T08:38:27.047Z,45.78
2022-10-11T08:43:26.997Z,45.99
2022-10-11T08:48:26.928Z,43.42
2022-10-11T08:53:26.839Z,45.25
2022-10-11T08:58:26.810Z,43.49
2022-10-11T09:03:26.709Z,38.37
2022-10-11T09:08:26.635Z,35.34
2022-10-11T09:13:26.589Z,31.52
2022-10-11T09:18:26.539Z,30.24
2022-10-11T09:23:26.477Z,28.74
2022-10-11T09:28:26.422Z,27.80
2022-10-11T09:33:26.329Z,26.84
2022-10-11T09:38:26.242Z,26.31
2022-10-11T09:43:26.176Z,25.80
2022-10-11T09:48:26.132Z,25.34
2022-10-11T09:53:26.041Z,24.99
2022-10-11T09:58:26.002Z,24.64
2022-10-11T10:03:25.931Z,24.00
2022-10-11T10:08:25.837Z,23.38
2022-10-11T10:13:25.799Z,23.11
2022-10-11T10:18:25.712Z,21.45
2022-10-11T10:23:25.640Z,22.35
2022-10-11T10:28:25.663Z,22.23
2022-10-11T10:33:25.560Z,21.55
2022-10-11T10:38:26.698Z,21.06
2022-10-11T10:43:25.556Z,22.64
2022-10-11T10:48:25.290Z,26.60
2022-10-11T10:53:25.260Z,28.16
2022-10-11T10:58:25.193Z,29.10
2022-10-11T11:03:25.109Z,31.85
2022-10-11T11:08:25.061Z,30.94
2022-10-11T11:13:25.042Z,31.34
2022-10-11T11:18:24.935Z,29.11
2022-10-11T11:23:24.867Z,28.41
2022-10-11T11:28:24.840Z,29.95
2022-10-11T11:33:24.721Z,25.72
2022-10-11T11:38:29.246Z,24.64
2022-10-11T11:43:25.589Z,24.21
2022-10-11T11:48:24.503Z,24.25
2022-10-11T11:53:24.461Z,24.28
2022-10-11T11:58:24.378Z,23.96
2022-10-11T12:03:24.285Z,23.39
2022-10-11T12:08:24.256Z,24.08
2022-10-11T12:13:27.248Z,25.19
2022-10-11T12:18:25.108Z,25.88
2022-10-11T12:23:24.054Z,26.12
2022-10-11T12:28:24.059Z,26.67
2022-10-11T12:33:23.923Z,29.42
2022-10-11T12:38:23.863Z,31.20
2022-10-11T12:43:23.781Z,31.93
2022-10-11T12:48:25.572Z,32.39
2022-10-11T12:53:23.645Z,32.50
2022-10-11T12:58:23.604Z,33.09
2022-10-11T13:03:26.158Z,33.37
2022-10-11T13:08:23.478Z,33.67
2022-10-11T13:13:23.392Z,33.91
2022-10-11T13:18:23.321Z,34.86
2022-10-11T13:23:23.218Z,35.01
2022-10-11T13:28:23.214Z,34.79
2022-10-11T13:33:23.106Z,33.87
2022-10-11T13:38:23.032Z,33.55
2022-10-11T13:43:22.974Z,33.20
2022-10-11T13:48:22.887Z,33.19
2022-10-11T13:53:22.820Z,33.54
2022-10-11T13:58:22.792Z,34.34
2022-10-11T14:03:22.674Z,34.76
2022-10-11T14:08:22.622Z,35.03
2022-10-11T14:13:22.557Z,35.20
2022-10-11T14:18:22.506Z,35.46
2022-10-11T14:23:22.422Z,35.77
2022-10-11T14:28:22.550Z,36.22
2022-10-11T14:33:22.309Z,36.74
2022-10-11T14:38:22.280Z,37.00
2022-10-11T14:43:22.144Z,37.37
2022-10-11T14:48:42.940Z,38.16
2022-10-11T14:53:23.013Z,38.33
2022-10-11T14:58:21.922Z,38.52
2022-10-11T15:03:21.878Z,38.76
2022-10-11T15:08:21.821Z,39.09
2022-10-11T15:13:21.762Z,39.38
2022-10-11T15:18:21.769Z,39.70
2022-10-11T15:23:21.609Z,40.04
2022-10-11T15:28:21.602Z,40.41
2022-10-11T15:33:21.473Z,40.81
2022-10-11T15:38:21.425Z,41.20
2022-10-11T15:43:24.755Z,41.61
2022-10-11T15:48:21.256Z,41.96
2022-10-11T15:53:21.202Z,42.34
2022-10-11T15:58:21.137Z,42.71
2022-10-11T16:03:21.062Z,42.96
2022-10-11T16:08:21.009Z,43.31
2022-10-11T16:13:20.932Z,43.61
2022-10-11T16:18:20.870Z,43.93
2022-10-11T16:23:20.809Z,44.32
2022-10-11T16:28:20.763Z,44.68
2022-10-11T16:33:20.662Z,45.06
2022-10-11T16:38:20.596Z,45.36
2022-10-11T16:43:20.499Z,45.67
2022-10-11T16:48:20.463Z,46.01
2022-10-11T16:53:20.388Z,46.27
2022-10-11T16:58:20.329Z,46.60
2022-10-11T17:03:20.251Z,46.91
2022-10-11T17:08:20.192Z,47.25
2022-10-11T17:13:20.124Z,47.49
2022-10-11T17:18:20.069Z,47.70
2022-10-11T17:23:19.972Z,47.88
2022-10-11T17:28:19.953Z,48.13
2022-10-11T17:33:19.878Z,48.36
2022-10-11T17:38:19.798Z,48.56
2022-10-11T17:43:19.752Z,48.73
2022-10-11T17:48:19.658Z,49.07
2022-10-11T17:53:19.613Z,49.20
2022-10-11T17:58:19.533Z,49.40
2022-10-11T18:03:19.470Z,49.71
2022-10-11T18:08:19.411Z,49.84
2022-10-11T18:13:19.301Z,49.87
2022-10-11T18:18:19.258Z,49.95
2022-10-11T18:23:19.184Z,50.04
2022-10-11T18:28:19.202Z,50.23
2022-10-11T18:33:19.058Z,50.45
2022-10-11T18:38:19.001Z,50.67
2022-10-11T18:43:18.953Z,50.90
2022-10-11T18:48:18.841Z,51.19
2022-10-11T18:53:18.854Z,51.43
2022-10-11T18:58:18.722Z,51.73
2022-10-11T19:03:18.637Z,51.96
2022-10-11T19:08:18.595Z,52.14
2022-10-11T19:13:18.538Z,52.39
2022-10-11T19:18:20.585Z,52.60
2022-10-11T19:23:18.363Z,52.86
2022-10-11T19:28:18.397Z,53.00
2022-10-11T19:33:18.270Z,53.12
2022-10-11T19:38:18.263Z,53.28
2022-10-11T19:43:18.140Z,53.42
2022-10-11T19:48:18.072Z,53.58
2022-10-11T19:53:17.952Z,53.75
2022-10-11T19:58:17.937Z,53.90
2022-10-11T20:03:17.834Z,54.02
2022-10-11T20:08:17.776Z,54.13
2022-10-11T20:13:17.697Z,54.23
2022-10-11T20:18:17.635Z,54.35
2022-10-11T20:23:18.199Z,54.45
2022-10-11T20:28:17.527Z,54.55
2022-10-11T20:33:17.421Z,54.66
2022-10-11T20:38:17.373Z,54.81
2022-10-11T20:43:17.324Z,54.95
2022-10-11T20:48:17.207Z,55.11
2022-10-11T20:53:17.138Z,55.28
2022-10-11T20:58:17.074Z,55.41
2022-10-11T21:03:17.029Z,55.55
2022-10-11T21:08:16.992Z,55.68
2022-10-11T21:13:16.883Z,55.80
2022-10-11T21:18:16.795Z,55.90
2022-10-11T21:23:16.754Z,55.97
2022-10-11T21:28:16.754Z,56.03
2022-10-11T21:33:16.595Z,56.12
2022-10-11T21:38:16.544Z,56.22
2022-10-11T21:43:16.504Z,56.35
2022-10-11T21:48:16.442Z,56.49
2022-10-11T21:53:16.348Z,56.61
2022-10-11T21:58:16.279Z,56.72
2022-10-11T22:03:16.227Z,56.85
2022-10-11T22:08:16.153Z,57.02
2022-10-11T22:13:16.088Z,57.17
2022-10-11T22:18:16.027Z,57.26
2022-10-11T22:23:15.954Z,57.33
2022-10-11T22:28:15.920Z,57.39
2022-10-11T22:33:15.818Z,57.47
2022-10-11T22:38:15.744Z,57.52
2022-10-11T22:43:15.676Z,57.61
2022-10-11T22:48:15.644Z,57.72
2022-10-11T22:53:15.554Z,57.81
2022-10-11T22:58:15.492Z,57.92
2022-10-11T23:03:15.436Z,57.99
2022-10-11T23:08:15.353Z,58.07
2022-10-11T23:13:15.257Z,58.17
2022-10-11T23:18:15.212Z,58.24
2022-10-11T23:23:15.145Z,58.34
2022-10-11T23:28:15.120Z,58.43
2022-10-11T23:33:15.010Z,58.54
2022-10-11T23:38:14.961Z,58.63
2022-10-11T23:43:14.876Z,58.74
2022-10-11T23:48:14.814Z,58.84
2022-10-11T23:53:14.735Z,58.90
2022-10-11T23:58:14.694Z,58.97
